Accident Mitsubishi MU-2B-60 Marquise C-GYUA,
ASN logo
ASN Wikibase Occurrence # 348423
 
This information is added by users of ASN. Neither ASN nor the Flight Safety Foundation are responsible for the completeness or correctness of this information. If you feel this information is incomplete or incorrect, you can submit corrected information.

Date:Monday 27 November 2023
Time:c. 07:40
Type:Silhouette image of generic MU2 model; specific model in this crash may look slightly different    
Mitsubishi MU-2B-60 Marquise
Owner/operator:Thunder Airlines Limited
Registration: C-GYUA
MSN: 1553 S.A.
Year of manufacture:1982
Fatalities:Fatalities: 0 / Occupants: 3
Aircraft damage: Substantial
Category:Accident
Location:Wawa Municipal Airport (CYXZ/YXZ), Wawa, ON -   Canada
Phase: Landing
Nature:Ambulance
Departure airport:Thunder Bay Airport, ON (YQT/CYQT)
Destination airport:Wawa Airport, ON (YXZ/CYXZ)
Investigating agency: TSB
Confidence Rating: Information verified through data from accident investigation authorities
Narrative:
The aircraft lost control and veered off the runway while landing on the snow-covered runway 03 at the Wawa Municipal Airport (CYXZ/YXZ), Wawa, Ontario. It slid down into the drainage area beside the runway.
The three occupants were not injured.


METAR:

Weather reported about the accident time (c 1240Z):
CYXZ 271300Z 30006KT 270V330 9SM -SN SCT013 OVC026 M07/M09 A2952 RMK SF4NS4 SLP014
CYXZ 271241Z 31008KT 270V340 3SM -SN SCT013 OVC025 M06/M08 A2951 RMK SF4ST4 SLP012
CYXZ 271200Z 24004KT 200V320 1SM -SN FEW008 SCT017 BKN022 OVC041 M05/M07 A2949 RMK SF1SF2NS4NS1 SF TR SLP004

Sources:

https://www.snnewswatch.com/local-news/investigators-to-probe-plane-crash-at-wawa-airport-7888518
https://www.iheartradio.ca/ctv-news-content/investigators-head-to-scene-of-plane-crash-in-wawa-ont-1.20756694
https://www.flightaware.com/live/flight/THU890/history/20231127/1140Z/CYQT/CYXZ
https://www.flightradar24.com/data/flights/thu890#32fc1dd1

Location

Images:


Wawa Municipal Airport 11/30/2023

Revision history:

Date/timeContributorUpdates
27-Nov-2023 20:52 Captain Adam Added
28-Nov-2023 07:25 harro Updated [Date, Registration, Cn, Other fatalities, Nature, Departure airport, Source]
28-Nov-2023 07:28 harro Updated [Cn, Other fatalities, Narrative]
30-Nov-2023 20:52 Anon. Updated [Photo]
08-Dec-2023 20:46 Anon. Updated [Narrative]
14-Dec-2023 17:00 harro Updated [Other fatalities, Narrative]

Corrections or additions? ... Edit this accident description

The Aviation Safety Network is an exclusive service provided by:
Quick Links:

CONNECT WITH US: FSF on social media FSF Facebook FSF Twitter FSF Youtube FSF LinkedIn FSF Instagram

©2024 Flight Safety Foundation

1920 Ballenger Av, 4th Fl.
Alexandria, Virginia 22314
www.FlightSafety.org